createdAt,value
2023-06-26T00:00:33.162Z,3.77
2023-06-26T00:02:42.248Z,3.87
2023-06-26T00:04:50.494Z,3.73
2023-06-26T00:06:58.687Z,4.13
2023-06-26T00:09:07.665Z,3.97
2023-06-26T00:11:15.944Z,3.73
2023-06-26T00:13:25.746Z,4.03
2023-06-26T00:15:35.275Z,3.43
2023-06-26T00:17:43.616Z,3.77
2023-06-26T00:19:52.881Z,4.37
2023-06-26T00:22:01.279Z,4.00
2023-06-26T00:24:10.327Z,3.40
2023-06-26T00:26:18.664Z,3.40
2023-06-26T00:28:26.994Z,3.23
2023-06-26T00:30:36.876Z,3.30
2023-06-26T00:32:45.331Z,4.13
2023-06-26T00:34:54.366Z,3.80
2023-06-26T00:37:02.576Z,3.47
2023-06-26T00:39:10.835Z,3.87
2023-06-26T00:41:19.024Z,4.10
2023-06-26T00:43:27.226Z,3.27
2023-06-26T00:45:43.334Z,3.70
2023-06-26T00:47:52.105Z,3.80
2023-06-26T00:50:00.455Z,3.60
2023-06-26T00:52:09.203Z,3.77
2023-06-26T00:54:21.318Z,3.87
2023-06-26T00:56:30.937Z,3.43
2023-06-26T00:58:39.206Z,4.07
2023-06-26T01:00:48.881Z,3.93
2023-06-26T01:03:00.374Z,3.30
2023-06-26T01:05:13.972Z,3.67
2023-06-26T01:07:23.848Z,3.60
2023-06-26T01:09:33.453Z,3.73
2023-06-26T01:11:41.742Z,3.60
2023-06-26T01:13:51.464Z,3.50
2023-06-26T01:16:02.020Z,3.50
2023-06-26T01:18:10.665Z,3.47
2023-06-26T01:20:19.687Z,3.40
2023-06-26T01:22:33.545Z,3.37
2023-06-26T01:24:47.182Z,3.53
2023-06-26T01:26:57.311Z,3.37
2023-06-26T01:29:08.877Z,3.30
2023-06-26T01:31:18.368Z,3.90
2023-06-26T01:33:26.777Z,3.73
2023-06-26T01:35:35.605Z,3.30
2023-06-26T01:37:43.953Z,3.63
2023-06-26T01:39:52.274Z,3.93
2023-06-26T01:42:02.314Z,3.60
2023-06-26T01:44:20.012Z,3.60
2023-06-26T01:46:39.235Z,3.33
2023-06-26T01:48:55.917Z,3.23
2023-06-26T01:51:04.418Z,3.53
2023-06-26T01:53:15.158Z,3.70
2023-06-26T01:55:29.882Z,3.87
2023-06-26T01:57:41.785Z,3.40
2023-06-26T01:59:50.503Z,3.50
2023-06-26T02:01:58.793Z,3.77
2023-06-26T02:04:06.980Z,3.50
2023-06-26T02:06:15.235Z,3.87
2023-06-26T02:08:23.904Z,3.37
2023-06-26T02:10:32.114Z,3.90
2023-06-26T02:12:41.669Z,3.63
2023-06-26T02:14:51.108Z,4.07
2023-06-26T02:16:59.814Z,3.90
2023-06-26T02:19:08.036Z,3.40
2023-06-26T02:21:16.288Z,3.80
2023-06-26T02:23:24.507Z,3.70
2023-06-26T02:25:32.881Z,3.47
2023-06-26T02:27:43.521Z,3.37
2023-06-26T02:29:51.812Z,3.70
2023-06-26T02:32:00.067Z,3.60
2023-06-26T02:34:09.446Z,3.57
2023-06-26T02:36:17.774Z,3.30
2023-06-26T02:38:25.991Z,3.53
2023-06-26T02:40:34.417Z,3.60
2023-06-26T02:42:44.097Z,4.17
2023-06-26T02:44:52.962Z,4.37
2023-06-26T02:47:01.252Z,4.23
2023-06-26T02:49:09.609Z,4.10
2023-06-26T02:51:17.962Z,3.80
2023-06-26T02:53:26.184Z,4.00
2023-06-26T02:55:35.681Z,3.77
2023-06-26T02:57:45.309Z,4.30
2023-06-26T02:59:54.865Z,4.13
2023-06-26T03:02:03.141Z,4.27
2023-06-26T03:04:11.632Z,4.23
2023-06-26T03:06:19.998Z,4.00
2023-06-26T03:08:28.241Z,3.87
2023-06-26T03:10:36.679Z,4.00
2023-06-26T03:12:46.539Z,3.80
2023-06-26T03:14:54.872Z,4.00
2023-06-26T03:17:04.996Z,4.23
2023-06-26T03:19:13.489Z,4.13
2023-06-26T03:21:21.716Z,3.80
2023-06-26T03:23:30.170Z,3.90
2023-06-26T03:25:38.601Z,3.33
2023-06-26T03:27:48.259Z,3.57
2023-06-26T03:29:56.459Z,3.87
2023-06-26T03:32:04.947Z,3.90
2023-06-26T03:34:13.309Z,4.07
2023-06-26T03:36:21.646Z,4.13
2023-06-26T03:38:29.879Z,3.97
2023-06-26T03:40:38.441Z,3.77
2023-06-26T03:42:48.274Z,4.20
2023-06-26T03:44:56.495Z,4.03
2023-06-26T03:47:04.825Z,4.03
2023-06-26T03:49:13.022Z,3.80
2023-06-26T03:51:21.550Z,3.60
2023-06-26T03:53:30.514Z,3.97
2023-06-26T03:55:40.167Z,4.10
2023-06-26T03:57:50.043Z,3.87
2023-06-26T03:59:58.292Z,3.90
2023-06-26T04:02:07.241Z,3.87
2023-06-26T04:04:15.724Z,4.00
2023-06-26T04:06:24.050Z,3.63
2023-06-26T04:08:32.187Z,4.23
2023-06-26T04:10:40.405Z,4.00
2023-06-26T04:12:50.166Z,4.10
2023-06-26T04:14:58.542Z,4.03
2023-06-26T04:17:06.690Z,4.00
2023-06-26T04:19:15.974Z,4.30
2023-06-26T04:21:26.296Z,3.80
2023-06-26T04:23:34.655Z,3.70
2023-06-26T04:25:43.122Z,4.30
2023-06-26T04:27:52.840Z,3.63
2023-06-26T04:30:01.684Z,3.87
2023-06-26T04:32:10.022Z,4.00
2023-06-26T04:34:18.278Z,3.93
2023-06-26T04:36:29.805Z,3.97
2023-06-26T04:38:38.221Z,3.97
2023-06-26T04:40:46.465Z,3.90
2023-06-26T04:42:56.049Z,3.90
2023-06-26T04:45:04.512Z,4.10
2023-06-26T04:47:12.777Z,4.07
2023-06-26T04:49:21.512Z,4.37
2023-06-26T04:51:29.973Z,4.40
2023-06-26T04:53:38.391Z,4.20
2023-06-26T04:55:46.940Z,3.73
2023-06-26T04:57:56.515Z,4.37
2023-06-26T05:00:09.302Z,4.40
2023-06-26T05:02:17.760Z,4.23
2023-06-26T05:04:25.969Z,4.27
2023-06-26T05:06:34.314Z,4.20
2023-06-26T05:08:42.595Z,4.17
2023-06-26T05:10:51.134Z,4.20
2023-06-26T05:13:00.759Z,4.40
2023-06-26T05:15:09.690Z,4.40
2023-06-26T05:17:18.016Z,4.77
2023-06-26T05:19:26.233Z,4.37
2023-06-26T05:21:35.891Z,4.40
2023-06-26T05:23:45.583Z,4.23
2023-06-26T05:25:54.653Z,4.43
2023-06-26T05:28:06.289Z,4.57
2023-06-26T05:30:15.949Z,5.10
2023-06-26T05:32:25.181Z,5.20
2023-06-26T05:34:35.307Z,5.10
2023-06-26T05:36:44.972Z,4.87
2023-06-26T05:38:54.107Z,5.33
2023-06-26T05:41:03.167Z,5.20
2023-06-26T05:43:13.477Z,4.90
2023-06-26T05:45:21.821Z,4.63
2023-06-26T05:47:30.220Z,4.13
2023-06-26T05:49:38.495Z,4.13
2023-06-26T05:51:47.212Z,4.20
2023-06-26T05:53:55.949Z,4.03
2023-06-26T05:56:04.724Z,3.97
2023-06-26T05:58:15.014Z,3.97
2023-06-26T06:00:24.213Z,4.70
2023-06-26T06:02:32.568Z,3.90
2023-06-26T06:04:40.825Z,3.80
2023-06-26T06:06:49.279Z,3.97
2023-06-26T06:08:57.755Z,3.87
2023-06-26T06:11:07.008Z,3.87
2023-06-26T06:13:17.514Z,4.17
2023-06-26T06:15:29.335Z,4.87
2023-06-26T06:17:39.108Z,4.43
2023-06-26T06:19:48.036Z,4.73
2023-06-26T06:21:56.523Z,4.13
2023-06-26T06:24:05.118Z,3.83
2023-06-26T06:26:13.380Z,3.70
2023-06-26T06:28:23.158Z,3.83
2023-06-26T06:30:44.197Z,3.53
2023-06-26T06:32:53.898Z,3.90
2023-06-26T06:35:09.826Z,3.57
2023-06-26T06:37:18.339Z,3.30
2023-06-26T06:39:26.568Z,3.63
2023-06-26T06:41:37.248Z,3.27
2023-06-26T06:43:47.350Z,3.50
2023-06-26T06:45:55.750Z,3.50
2023-06-26T06:48:04.468Z,3.53
2023-06-26T06:50:13.508Z,2.90
2023-06-26T06:52:21.944Z,3.50
2023-06-26T06:54:30.358Z,3.10
2023-06-26T06:56:38.716Z,3.13
2023-06-26T06:58:48.447Z,2.90
2023-06-26T07:00:56.953Z,2.90
2023-06-26T07:03:05.521Z,3.10
2023-06-26T07:05:14.433Z,3.30
2023-06-26T07:07:24.218Z,3.17
2023-06-26T07:09:32.483Z,3.20
2023-06-26T07:11:40.759Z,3.00
2023-06-26T07:13:50.798Z,3.10
2023-06-26T07:15:59.131Z,2.90
2023-06-26T07:18:07.431Z,3.27
2023-06-26T07:20:17.468Z,2.83
2023-06-26T07:22:26.092Z,2.60
2023-06-26T07:24:34.710Z,2.80
2023-06-26T07:26:46.123Z,3.00
2023-06-26T07:28:58.948Z,2.60
2023-06-26T07:31:07.299Z,2.93
2023-06-26T07:33:15.888Z,2.90
2023-06-26T07:35:26.219Z,2.87
2023-06-26T07:37:34.595Z,2.73
2023-06-26T07:39:43.074Z,2.47
2023-06-26T07:41:51.325Z,2.70
2023-06-26T07:44:01.056Z,2.60
2023-06-26T07:46:10.126Z,2.40
2023-06-26T07:48:18.847Z,2.30
2023-06-26T07:50:27.817Z,2.70
2023-06-26T07:52:36.227Z,2.37
2023-06-26T07:54:44.674Z,2.57
2023-06-26T07:56:58.403Z,2.60
2023-06-26T07:59:09.063Z,2.60
2023-06-26T08:01:17.680Z,2.53
2023-06-26T08:03:34.968Z,2.40
2023-06-26T08:05:44.317Z,2.50
2023-06-26T08:07:53.042Z,2.50
2023-06-26T08:10:01.438Z,2.60
2023-06-26T08:12:12.424Z,2.93
2023-06-26T08:14:23.410Z,2.80
2023-06-26T08:16:31.785Z,2.60
2023-06-26T08:18:40.425Z,2.67
2023-06-26T08:20:48.884Z,2.80
2023-06-26T08:22:57.473Z,3.07
2023-06-26T08:25:06.696Z,2.83
2023-06-26T08:27:15.472Z,2.87
2023-06-26T08:29:25.726Z,2.60
2023-06-26T08:31:35.579Z,2.63
2023-06-26T08:33:44.395Z,2.57
2023-06-26T08:35:53.353Z,2.70
2023-06-26T08:38:04.789Z,2.90
2023-06-26T08:40:13.971Z,2.70
2023-06-26T08:42:22.449Z,2.67
2023-06-26T08:44:32.839Z,2.37
2023-06-26T08:46:41.664Z,2.40
2023-06-26T08:48:52.200Z,2.90
2023-06-26T08:51:03.795Z,2.50
2023-06-26T08:53:14.553Z,2.63
2023-06-26T08:55:25.261Z,2.63
2023-06-26T08:57:35.228Z,2.60
2023-06-26T08:59:45.236Z,2.70
2023-06-26T09:01:53.767Z,2.50
2023-06-26T09:04:02.574Z,2.63
2023-06-26T09:06:11.154Z,2.40
2023-06-26T09:08:19.795Z,2.43
2023-06-26T09:10:28.066Z,2.30
2023-06-26T09:12:37.100Z,2.40
2023-06-26T09:14:46.938Z,2.57
2023-06-26T09:16:55.369Z,2.20
2023-06-26T09:19:03.873Z,2.53
2023-06-26T09:21:13.385Z,2.53
2023-06-26T09:23:26.578Z,2.37
2023-06-26T09:25:35.763Z,2.60
2023-06-26T09:27:46.048Z,2.30
2023-06-26T09:29:57.152Z,2.53
2023-06-26T09:32:05.981Z,2.70
2023-06-26T09:34:14.372Z,2.50
2023-06-26T09:36:24.563Z,2.60
2023-06-26T09:38:32.904Z,2.43
2023-06-26T09:40:41.750Z,2.93
2023-06-26T09:42:50.406Z,2.70
2023-06-26T09:45:00.532Z,2.67
2023-06-26T09:47:09.785Z,2.40
2023-06-26T09:49:18.211Z,2.30
2023-06-26T09:51:26.902Z,2.40
2023-06-26T09:53:37.882Z,2.40
2023-06-26T09:55:46.409Z,2.50
2023-06-26T09:57:57.799Z,3.00
2023-06-26T10:00:09.393Z,2.50
2023-06-26T10:02:18.186Z,2.20
2023-06-26T10:04:26.802Z,2.43
2023-06-26T10:06:38.007Z,2.30
2023-06-26T10:08:46.695Z,2.40
2023-06-26T10:10:55.650Z,2.50
2023-06-26T10:13:10.474Z,2.10
2023-06-26T10:15:21.649Z,2.43
2023-06-26T10:17:32.732Z,2.33
2023-06-26T10:19:44.432Z,2.30
2023-06-26T10:21:53.849Z,2.67
2023-06-26T10:24:02.887Z,2.07
2023-06-26T10:26:11.993Z,2.40
2023-06-26T10:28:22.201Z,2.43
2023-06-26T10:30:37.179Z,2.57
2023-06-26T10:32:45.938Z,2.60
2023-06-26T10:34:54.714Z,2.70
2023-06-26T10:37:04.332Z,2.43
2023-06-26T10:39:12.591Z,2.73
2023-06-26T10:41:24.662Z,2.57
2023-06-26T10:43:33.103Z,3.10
2023-06-26T10:45:47.637Z,2.83
2023-06-26T10:47:56.104Z,2.73
2023-06-26T10:50:23.765Z,2.30
2023-06-26T10:52:32.692Z,2.50
2023-06-26T10:54:41.286Z,2.80
2023-06-26T10:56:51.245Z,2.53
2023-06-26T10:59:15.418Z,2.60
2023-06-26T11:01:25.858Z,2.70
2023-06-26T11:03:34.171Z,2.50
2023-06-26T11:05:42.376Z,2.43
2023-06-26T11:08:09.116Z,3.00
2023-06-26T11:10:21.088Z,2.70
2023-06-26T11:12:43.512Z,2.60
2023-06-26T11:14:53.325Z,2.50
2023-06-26T11:17:05.229Z,2.50
2023-06-26T11:19:13.790Z,2.60
2023-06-26T11:21:24.862Z,2.70
2023-06-26T11:23:36.704Z,2.80
2023-06-26T11:25:45.428Z,2.70
2023-06-26T11:27:59.104Z,2.57
2023-06-26T11:30:09.045Z,2.97
2023-06-26T11:32:18.693Z,2.33
2023-06-26T11:34:31.797Z,2.00
2023-06-26T11:36:40.679Z,2.47
2023-06-26T11:38:54.424Z,2.00
2023-06-26T11:41:02.706Z,2.60
2023-06-26T11:43:12.449Z,2.33
2023-06-26T11:45:24.099Z,2.10
2023-06-26T11:47:34.284Z,2.40
2023-06-26T11:49:45.539Z,2.07
2023-06-26T11:51:55.507Z,2.00
2023-06-26T11:54:05.240Z,2.10
2023-06-26T11:56:14.833Z,2.17
2023-06-26T11:58:23.200Z,2.53
2023-06-26T12:00:31.380Z,2.43
2023-06-26T12:02:41.330Z,2.37
2023-06-26T12:04:50.162Z,2.17
2023-06-26T12:06:59.008Z,2.37
2023-06-26T12:09:12.761Z,2.30
2023-06-26T12:11:24.003Z,2.53
2023-06-26T12:13:32.579Z,2.23
2023-06-26T12:15:41.015Z,2.30
2023-06-26T12:17:50.847Z,2.40
2023-06-26T12:20:00.434Z,2.40
2023-06-26T12:22:09.780Z,2.20
2023-06-26T12:24:19.781Z,2.40
2023-06-26T12:26:29.924Z,2.70
2023-06-26T12:28:41.067Z,2.63
2023-06-26T12:30:49.747Z,2.53
2023-06-26T12:32:59.505Z,2.20
2023-06-26T12:35:08.875Z,2.20
2023-06-26T12:37:18.295Z,2.50
2023-06-26T12:39:28.781Z,2.50
2023-06-26T12:41:37.314Z,2.07
2023-06-26T12:43:45.813Z,2.30
2023-06-26T12:45:58.847Z,2.30
2023-06-26T12:48:14.582Z,2.47
2023-06-26T12:50:22.914Z,2.40
2023-06-26T12:52:31.551Z,2.67
2023-06-26T12:54:42.217Z,2.37
2023-06-26T12:56:50.496Z,2.40
2023-06-26T12:58:58.757Z,2.30
2023-06-26T13:01:16.020Z,2.60
2023-06-26T13:03:25.962Z,3.00
2023-06-26T13:05:34.128Z,2.40
2023-06-26T13:07:42.505Z,2.40
2023-06-26T13:09:51.310Z,2.60
2023-06-26T13:11:59.781Z,3.30
2023-06-26T13:14:11.589Z,2.77
2023-06-26T13:16:20.954Z,2.57
2023-06-26T13:18:30.660Z,2.50
2023-06-26T13:20:39.144Z,2.63
2023-06-26T13:22:47.752Z,2.80
2023-06-26T13:24:58.158Z,2.70
2023-06-26T13:27:06.894Z,2.13
2023-06-26T13:29:15.305Z,2.70
2023-06-26T13:31:23.902Z,2.33
2023-06-26T13:33:33.954Z,2.20
2023-06-26T13:35:42.221Z,2.40
2023-06-26T13:37:50.534Z,2.00
2023-06-26T13:40:00.636Z,2.20
2023-06-26T13:42:09.394Z,2.10
2023-06-26T13:44:30.094Z,2.33
2023-06-26T13:46:46.220Z,2.57
2023-06-26T13:48:55.827Z,2.53
2023-06-26T13:51:04.134Z,2.47
2023-06-26T13:53:12.370Z,2.60
2023-06-26T13:55:23.768Z,2.50
2023-06-26T13:57:31.957Z,2.60
2023-06-26T13:59:41.557Z,2.90
2023-06-26T14:01:50.693Z,2.53
2023-06-26T14:04:01.088Z,2.60
2023-06-26T14:06:12.128Z,2.40
2023-06-26T14:08:20.330Z,2.67
2023-06-26T14:10:28.590Z,2.80
2023-06-26T14:12:37.009Z,2.60
2023-06-26T14:14:45.320Z,2.50
2023-06-26T14:16:53.617Z,2.50
2023-06-26T14:19:03.938Z,2.60
2023-06-26T14:21:12.366Z,2.20
2023-06-26T14:23:20.701Z,2.53
2023-06-26T14:25:29.921Z,2.53
2023-06-26T14:27:38.998Z,2.50
2023-06-26T14:29:47.258Z,2.53
2023-06-26T14:31:56.609Z,2.73
2023-06-26T14:34:07.944Z,2.93
2023-06-26T14:36:16.186Z,2.70
2023-06-26T14:38:24.452Z,2.83
2023-06-26T14:40:32.872Z,3.10
2023-06-26T14:42:41.753Z,3.20
2023-06-26T14:44:51.735Z,3.10
2023-06-26T14:47:00.564Z,3.20
2023-06-26T14:49:10.468Z,3.43
2023-06-26T14:51:20.879Z,4.23
2023-06-26T14:53:29.128Z,3.40
2023-06-26T14:55:37.359Z,3.77
2023-06-26T14:57:45.843Z,3.50
2023-06-26T14:59:54.125Z,3.47
2023-06-26T15:02:02.473Z,3.43
2023-06-26T15:04:12.557Z,3.27
2023-06-26T15:06:21.032Z,3.30
2023-06-26T15:08:29.276Z,3.00
2023-06-26T15:10:37.790Z,3.37
2023-06-26T15:12:46.330Z,3.50
2023-06-26T15:14:54.581Z,3.20
2023-06-26T15:17:02.843Z,3.77
2023-06-26T15:19:12.375Z,3.23
2023-06-26T15:21:20.722Z,3.60
2023-06-26T15:23:29.569Z,3.77
2023-06-26T15:25:37.929Z,3.67
2023-06-26T15:27:46.174Z,3.80
2023-06-26T15:29:54.365Z,3.70
2023-06-26T15:32:02.727Z,3.83
2023-06-26T15:34:14.399Z,3.77
2023-06-26T15:36:22.856Z,4.10
2023-06-26T15:38:31.046Z,4.00
2023-06-26T15:40:39.715Z,3.70
2023-06-26T15:42:48.770Z,3.90
2023-06-26T15:44:57.075Z,3.80
2023-06-26T15:47:05.822Z,4.27
2023-06-26T15:49:15.458Z,4.10
2023-06-26T15:51:23.874Z,3.77
2023-06-26T15:53:38.522Z,4.17
2023-06-26T15:55:46.797Z,3.87
2023-06-26T15:57:55.053Z,4.23
2023-06-26T16:00:05.847Z,4.10
2023-06-26T16:02:14.146Z,3.90
2023-06-26T16:04:23.772Z,3.70
2023-06-26T16:06:31.973Z,4.00
2023-06-26T16:08:41.710Z,4.50
2023-06-26T16:10:50.038Z,4.00
2023-06-26T16:12:58.320Z,3.80
2023-06-26T16:15:07.633Z,4.20
2023-06-26T16:17:15.998Z,3.70
2023-06-26T16:19:25.614Z,3.60
2023-06-26T16:21:33.752Z,4.00
2023-06-26T16:23:42.066Z,3.70
2023-06-26T16:25:50.409Z,3.90
2023-06-26T16:27:58.789Z,4.20
2023-06-26T16:30:08.318Z,4.47
2023-06-26T16:32:16.618Z,4.17
2023-06-26T16:34:26.337Z,3.70
2023-06-26T16:36:34.726Z,3.70
2023-06-26T16:38:43.563Z,3.47
2023-06-26T16:40:51.793Z,3.50
2023-06-26T16:43:00.173Z,3.97
2023-06-26T16:45:09.970Z,3.60
2023-06-26T16:47:21.539Z,3.63
2023-06-26T16:49:31.260Z,3.87
2023-06-26T16:51:39.504Z,3.70
2023-06-26T16:53:47.778Z,4.20
2023-06-26T16:55:55.961Z,3.80
2023-06-26T16:58:04.341Z,3.70
2023-06-26T17:00:13.649Z,4.20
2023-06-26T17:02:24.602Z,3.97
2023-06-26T17:04:34.284Z,4.37
2023-06-26T17:06:44.665Z,4.30
2023-06-26T17:08:52.926Z,3.87
2023-06-26T17:11:01.098Z,3.70
2023-06-26T17:13:09.494Z,3.60
2023-06-26T17:15:17.976Z,3.63
2023-06-26T17:17:26.205Z,3.50
2023-06-26T17:19:38.245Z,3.60
2023-06-26T17:21:48.656Z,3.60
2023-06-26T17:23:57.572Z,3.83
2023-06-26T17:26:06.397Z,4.10
2023-06-26T17:28:16.250Z,4.00
2023-06-26T17:30:24.717Z,3.60
2023-06-26T17:32:33.098Z,3.90
2023-06-26T17:34:42.638Z,3.37
2023-06-26T17:36:50.869Z,4.00
2023-06-26T17:39:01.672Z,3.80
2023-06-26T17:41:09.950Z,3.57
2023-06-26T17:43:21.603Z,3.50
2023-06-26T17:45:30.816Z,3.70
2023-06-26T17:47:39.204Z,3.60
2023-06-26T17:49:48.965Z,3.37
2023-06-26T17:51:57.245Z,3.77
2023-06-26T17:54:05.775Z,3.50
2023-06-26T17:56:13.999Z,3.20
2023-06-26T17:58:22.214Z,3.40
2023-06-26T18:00:30.753Z,3.23
2023-06-26T18:02:41.459Z,3.33
2023-06-26T18:04:51.574Z,3.30
2023-06-26T18:07:02.361Z,3.40
2023-06-26T18:09:10.809Z,3.30
2023-06-26T18:11:19.046Z,3.23
2023-06-26T18:13:29.280Z,3.27
2023-06-26T18:15:37.644Z,3.67
2023-06-26T18:17:46.114Z,3.80
2023-06-26T18:19:55.761Z,3.60
2023-06-26T18:22:03.995Z,3.23
2023-06-26T18:24:12.373Z,4.03
2023-06-26T18:26:20.713Z,4.00
2023-06-26T18:28:30.655Z,3.53
2023-06-26T18:30:41.223Z,3.30
2023-06-26T18:32:50.615Z,3.80
2023-06-26T18:35:00.236Z,3.63
2023-06-26T18:37:08.778Z,3.80
2023-06-26T18:39:17.168Z,3.40
2023-06-26T18:41:25.446Z,3.83
2023-06-26T18:43:33.672Z,3.27
2023-06-26T18:45:42.190Z,3.40
2023-06-26T18:47:51.942Z,3.37
2023-06-26T18:50:02.041Z,3.33
2023-06-26T18:52:10.327Z,3.00
2023-06-26T18:54:18.475Z,3.10
2023-06-26T18:56:28.054Z,3.17
2023-06-26T18:58:37.486Z,3.07
2023-06-26T19:00:46.304Z,3.23
2023-06-26T19:02:54.504Z,3.00
2023-06-26T19:05:04.371Z,2.93
2023-06-26T19:07:12.883Z,3.13
2023-06-26T19:09:21.586Z,3.13
2023-06-26T19:11:29.778Z,3.03
2023-06-26T19:13:37.995Z,3.27
2023-06-26T19:15:46.289Z,2.90
2023-06-26T19:17:54.540Z,3.17
2023-06-26T19:20:04.662Z,2.90
2023-06-26T19:22:13.179Z,3.03
2023-06-26T19:24:21.482Z,3.03
2023-06-26T19:26:30.015Z,3.27
2023-06-26T19:28:38.217Z,3.20
2023-06-26T19:30:46.506Z,3.03
2023-06-26T19:32:54.833Z,3.10
2023-06-26T19:35:05.257Z,3.30
2023-06-26T19:37:13.614Z,3.30
2023-06-26T19:39:22.035Z,3.00
2023-06-26T19:41:30.269Z,3.03
2023-06-26T19:43:38.501Z,2.83
2023-06-26T19:45:46.742Z,3.13
2023-06-26T19:47:55.408Z,3.37
2023-06-26T19:50:05.643Z,3.50
2023-06-26T19:52:15.433Z,3.20
2023-06-26T19:54:23.657Z,2.87
2023-06-26T19:56:32.065Z,3.33
2023-06-26T19:58:40.662Z,3.23
2023-06-26T20:00:49.018Z,3.73
2023-06-26T20:02:57.567Z,3.40
2023-06-26T20:05:09.529Z,3.50
2023-06-26T20:07:17.861Z,4.07
2023-06-26T20:09:27.606Z,3.97
2023-06-26T20:11:35.899Z,4.50
2023-06-26T20:13:44.128Z,4.50
2023-06-26T20:15:55.049Z,4.90
2023-06-26T20:18:03.527Z,4.90
2023-06-26T20:20:14.160Z,5.70
2023-06-26T20:22:22.430Z,5.57
2023-06-26T20:24:34.665Z,5.00
2023-06-26T20:26:43.942Z,5.27
2023-06-26T20:28:52.116Z,5.17
2023-06-26T20:31:00.665Z,5.47
2023-06-26T20:33:08.987Z,5.57
2023-06-26T20:35:18.728Z,5.27
2023-06-26T20:37:26.970Z,5.50
2023-06-26T20:39:38.072Z,5.30
2023-06-26T20:41:47.644Z,5.43
2023-06-26T20:43:59.108Z,5.33
2023-06-26T20:46:08.405Z,5.47
2023-06-26T20:48:17.306Z,5.83
2023-06-26T20:50:28.477Z,5.87
2023-06-26T20:52:36.885Z,5.23
2023-06-26T20:54:45.621Z,5.17
2023-06-26T20:56:53.927Z,5.37
2023-06-26T20:59:02.234Z,5.73
2023-06-26T21:01:10.524Z,5.83
2023-06-26T21:03:18.911Z,5.57
2023-06-26T21:05:29.245Z,6.00
2023-06-26T21:07:37.530Z,5.73
2023-06-26T21:09:45.921Z,5.97
2023-06-26T21:11:54.059Z,6.70
2023-06-26T21:14:05.124Z,6.23
2023-06-26T21:16:16.294Z,6.33
2023-06-26T21:18:24.539Z,6.50
2023-06-26T21:20:34.267Z,6.27
2023-06-26T21:22:42.954Z,6.10
2023-06-26T21:24:51.646Z,6.03
2023-06-26T21:27:00.095Z,5.47
2023-06-26T21:29:08.761Z,5.60
2023-06-26T21:31:17.078Z,5.47
2023-06-26T21:33:25.488Z,5.40
2023-06-26T21:35:43.633Z,5.60
2023-06-26T21:37:52.779Z,5.13
2023-06-26T21:40:01.104Z,5.10
2023-06-26T21:42:11.937Z,5.47
2023-06-26T21:44:20.343Z,5.07
2023-06-26T21:46:28.603Z,5.30
2023-06-26T21:48:37.038Z,5.37
2023-06-26T21:50:47.093Z,4.97
2023-06-26T21:52:55.321Z,4.87
2023-06-26T21:55:04.261Z,5.10
2023-06-26T21:57:12.575Z,5.40
2023-06-26T21:59:21.147Z,4.57
2023-06-26T22:01:29.521Z,4.90
2023-06-26T22:03:37.715Z,4.57
2023-06-26T22:05:47.291Z,4.80
2023-06-26T22:07:56.729Z,4.30
2023-06-26T22:10:05.975Z,4.60
2023-06-26T22:12:14.250Z,5.23
2023-06-26T22:14:23.223Z,4.63
2023-06-26T22:16:31.612Z,4.90
2023-06-26T22:18:39.834Z,4.70
2023-06-26T22:20:50.208Z,5.20
2023-06-26T22:22:58.471Z,5.10
2023-06-26T22:25:07.799Z,5.23
2023-06-26T22:27:16.092Z,4.77
2023-06-26T22:29:25.977Z,4.60
2023-06-26T22:31:34.577Z,4.60
2023-06-26T22:33:45.884Z,4.87
2023-06-26T22:35:57.289Z,4.60
2023-06-26T22:38:05.557Z,4.40
2023-06-26T22:40:17.104Z,4.43
2023-06-26T22:42:25.372Z,4.70
2023-06-26T22:44:33.667Z,4.77
2023-06-26T22:46:41.893Z,4.20
2023-06-26T22:48:51.473Z,4.50
2023-06-26T22:51:01.218Z,4.90
2023-06-26T22:53:09.850Z,4.67
2023-06-26T22:55:18.151Z,4.77
2023-06-26T22:57:26.306Z,4.80
2023-06-26T22:59:34.505Z,4.90
2023-06-26T23:01:42.842Z,4.60
2023-06-26T23:03:53.206Z,5.13
2023-06-26T23:06:05.059Z,4.73
2023-06-26T23:08:13.414Z,4.60
2023-06-26T23:10:21.587Z,5.17
2023-06-26T23:12:29.841Z,4.80
2023-06-26T23:14:38.227Z,5.10
2023-06-26T23:16:46.871Z,5.10
2023-06-26T23:18:55.061Z,4.97
2023-06-26T23:21:04.810Z,5.03
2023-06-26T23:23:13.513Z,4.67
2023-06-26T23:25:21.787Z,4.87
2023-06-26T23:27:30.042Z,5.53
2023-06-26T23:29:38.535Z,4.70
2023-06-26T23:31:48.766Z,5.30
2023-06-26T23:33:57.346Z,5.10
2023-06-26T23:36:08.825Z,5.70
2023-06-26T23:38:17.076Z,5.37
2023-06-26T23:40:25.597Z,5.77
2023-06-26T23:42:37.073Z,5.40
2023-06-26T23:44:46.575Z,5.57
2023-06-26T23:46:57.743Z,5.60
2023-06-26T23:49:06.068Z,5.50
2023-06-26T23:51:19.422Z,5.47
2023-06-26T23:53:27.752Z,5.57
2023-06-26T23:55:36.072Z,5.27
2023-06-26T23:57:44.258Z,5.60
2023-06-26T23:59:52.494Z,5.13
